Crescent City, CA

3:08 PM PDT on October 25, 2014 (GMT -0700)
McNamara | Change Station
CLOSE
Current Station
Airport
Location: Crescent City,
Elevation: 56 ft
Nearby Weather Stations

Elev 56 ft 41.78 °N, 124.24 °W | Updated 12 minutes ago

Overcast
Overcast
60 °F
Feels Like 60 °F
N
12
Wind Variable Wind from West

Today
High -- | Low -- °F
--% Chance of Precip.
Yesterday
High -- | Low -- °F
Precip. -- in
7:40 AM 6:20 PM
Waxing Crescent, 4% visible
Pressure 29.89 in
Visibility 6.0 miles
Clouds Overcast 6000 ft
Dew Point 53 °F
Humidity 78%
Rainfall 0.53 in
Snow Depth Not available.
UV 1 out of 12
Pollen .40 out of 12
Air Quality Not available.
Flu Activity Sporadic
METAR KCEC 252156Z AUTO 26010KT 6SM HZ OVC060 16/12 A2989 RMK AO2 SLP121 T01560117

More Conditions Fewer Conditions

Pressure 29.89 in
Visibility 6.0 miles
Clouds Overcast 6000 ft
Dew Point 53 °F
Humidity 78%
Rainfall 0.53 in
Snow Depth Not available.
UV 1 out of 12
Pollen .40 out of 12
Air Quality Not available.
Flu Activity Sporadic
METAR KCEC 252156Z AUTO 26010KT 6SM HZ OVC060 16/12 A2989 RMK AO2 SLP121 T01560117

More Conditions Fewer Conditions

10-Day Weather Forecast

Almanac

Astronomy

Oct. 25, 2014 Rise Set
Actual Time 7:40 AM PDT 6:20 PM PDT
Civil Twilight 7:12 AM PDT 6:48 PM PDT
Nautical Twilight 6:39 AM PDT 7:21 PM PDT
Astronomical Twilight 6:07 AM PDT 7:53 PM PDT
Moon 9:26 AM PDT 7:46 PM PDT
Length of Visible Light 11h 36m
Length of Day
10h 39m
Tomorrow will be 2m 36s shorter.
Waxing Crescent, 4% of the Moon is Illuminated
Today
Waxing Crescent
Oct 30
First Quarter
Nov 6
Full
Nov 14
Last Quarter
Nov 22
New

Today's Extremes

State Highs State Lows

Community

WunderPhotos

Upload Photos

1,765,009 photos uploaded!

Nearby

Snow Depth

Station Depth Elevation
Adin Mountain 0 in 6200 ft
Independence Creek 0 in 6500 ft
Independence Lake 1 in 8450 ft
Independence Camp 0 in 7000 ft
Ward Creek #3 1 in 6750 ft

Earthquake Activity

City Distance Mag. Time & Date
No recent earthquake activity has been reported nearby.
Minimum magnitude displayed is 2.5.

Coastal Water Temperatures

Place Temperature
Crescent City, CA 60.1 °F
North Spit, CA 59.0 °F
Port Orford, OR 59.0 °F

Nearby Weather Stations